createdAt,value
2016-04-06T00:00:32.460Z,1003.59
2016-04-06T00:01:32.463Z,1003.55
2016-04-06T00:02:32.450Z,1003.57
2016-04-06T00:03:32.452Z,1003.6
2016-04-06T00:04:32.455Z,1003.6
2016-04-06T00:05:32.457Z,1003.63
2016-04-06T00:06:32.445Z,1003.57
2016-04-06T00:07:32.448Z,1003.61
2016-04-06T00:08:32.450Z,1003.56
2016-04-06T00:09:32.437Z,1003.66
2016-04-06T00:10:32.439Z,1003.6
2016-04-06T00:11:32.442Z,1003.66
2016-04-06T00:12:32.430Z,1003.68
2016-04-06T00:13:32.447Z,1003.71
2016-04-06T00:14:32.435Z,1003.67
2016-04-06T00:15:32.422Z,1003.77
2016-04-06T00:16:32.424Z,1003.8
2016-04-06T00:17:32.427Z,1003.81
2016-04-06T00:18:32.414Z,1003.79
2016-04-06T00:19:32.433Z,1003.77
2016-04-06T00:20:32.404Z,1003.72
2016-04-06T00:21:32.407Z,1003.76
2016-04-06T00:22:32.410Z,1003.79
2016-04-06T00:23:32.413Z,1003.82
2016-04-06T00:24:32.399Z,1003.76
2016-04-06T00:25:32.402Z,1003.79
2016-04-06T00:26:32.404Z,1003.82
2016-04-06T00:27:32.391Z,1003.81
2016-04-06T00:28:32.394Z,1003.82
2016-04-06T00:29:32.382Z,1003.82
2016-04-06T00:30:32.385Z,1003.86
2016-04-06T00:31:32.372Z,1003.83
2016-04-06T00:32:32.374Z,1003.85
2016-04-06T00:33:32.377Z,1003.86
2016-04-06T00:34:32.364Z,1003.86
2016-04-06T00:35:32.367Z,1003.81
2016-04-06T00:36:32.369Z,1003.85
2016-04-06T00:37:32.356Z,1003.81
2016-04-06T00:38:32.359Z,1003.83
2016-04-06T00:39:32.362Z,1003.88
2016-04-06T00:40:32.349Z,1003.91
2016-04-06T00:41:32.351Z,1003.88
2016-04-06T00:42:32.354Z,1003.88
2016-04-06T00:43:32.341Z,1003.89
2016-04-06T00:44:32.344Z,1003.91
2016-04-06T00:45:32.347Z,1003.9
2016-04-06T00:46:32.333Z,1003.94
2016-04-06T00:47:32.337Z,1003.94
2016-04-06T00:48:32.323Z,1003.94
2016-04-06T00:49:32.326Z,1003.88
2016-04-06T00:50:32.328Z,1003.86
2016-04-06T00:51:32.316Z,1003.83
2016-04-06T00:52:32.319Z,1003.84
2016-04-06T00:53:32.321Z,1003.87
2016-04-06T00:54:32.308Z,1003.89
2016-04-06T00:55:32.310Z,1003.92
2016-04-06T00:56:32.314Z,1003.86
2016-04-06T00:57:32.301Z,1003.88
2016-04-06T00:59:32.307Z,1003.89
2016-04-06T01:00:32.293Z,1003.92
2016-04-06T01:01:32.280Z,1003.92
2016-04-06T01:02:32.940Z,1003.87
2016-04-06T01:03:32.285Z,1003.87
2016-04-06T01:04:32.273Z,1003.86
2016-04-06T01:05:32.275Z,1003.82
2016-04-06T01:06:32.981Z,1003.83
2016-04-06T01:07:32.265Z,1003.81
2016-04-06T01:08:33.018Z,1003.82
2016-04-06T01:09:33.052Z,1003.87
2016-04-06T01:10:32.257Z,1003.89
2016-04-06T01:11:32.245Z,1003.86
2016-04-06T01:12:32.325Z,1003.94
2016-04-06T01:13:32.250Z,1003.89
2016-04-06T01:14:32.253Z,1003.98
2016-04-06T01:15:32.240Z,1004
2016-04-06T01:16:32.243Z,1003.98
2016-04-06T01:17:32.230Z,1003.93
2016-04-06T01:18:32.233Z,1003.95
2016-04-06T01:19:32.219Z,1003.97
2016-04-06T01:20:32.222Z,1003.95
2016-04-06T01:21:32.225Z,1003.96
2016-04-06T01:22:32.211Z,1003.96
2016-04-06T01:23:32.214Z,1003.97
2016-04-06T01:24:32.201Z,1003.95
2016-04-06T01:25:32.205Z,1004.02
2016-04-06T01:26:32.191Z,1003.99
2016-04-06T01:27:32.210Z,1004.03
2016-04-06T01:28:32.197Z,1004.06
2016-04-06T01:29:32.183Z,1004.07
2016-04-06T01:30:32.186Z,1004.02
2016-04-06T01:31:32.173Z,1003.97
2016-04-06T01:32:32.176Z,1003.92
2016-04-06T01:33:32.178Z,1003.97
2016-04-06T01:34:32.165Z,1003.99
2016-04-06T01:35:32.168Z,1004
2016-04-06T01:36:32.171Z,1003.97
2016-04-06T01:37:32.159Z,1003.98
2016-04-06T01:38:32.162Z,1004.02
2016-04-06T01:39:32.148Z,1004.03
2016-04-06T01:40:32.151Z,1004.02
2016-04-06T01:41:32.137Z,1004
2016-04-06T01:42:32.140Z,1004.01
2016-04-06T01:43:32.128Z,1003.98
2016-04-06T01:44:32.131Z,1004.01
2016-04-06T01:45:32.134Z,1003.99
2016-04-06T01:46:32.120Z,1004
2016-04-06T01:47:32.123Z,1004
2016-04-06T01:48:32.125Z,1003.98
2016-04-06T01:49:32.112Z,1003.96
2016-04-06T01:50:32.099Z,1003.94
2016-04-06T01:51:32.102Z,1003.92
2016-04-06T01:52:32.105Z,1003.95
2016-04-06T01:53:32.091Z,1003.94
2016-04-06T01:54:32.095Z,1003.97
2016-04-06T01:55:32.082Z,1004.04
2016-04-06T01:56:32.085Z,1004.06
2016-04-06T01:57:32.072Z,1004.14
2016-04-06T01:58:32.074Z,1004.13
2016-04-06T01:59:32.061Z,1004.13
2016-04-06T02:00:32.063Z,1004.16
2016-04-06T02:01:32.066Z,1004.13
2016-04-06T02:02:32.068Z,1004.15
2016-04-06T02:03:32.056Z,1004.17
2016-04-06T02:04:32.043Z,1004.17
2016-04-06T02:05:32.046Z,1004.23
2016-04-06T02:06:32.049Z,1004.21
2016-04-06T02:07:32.051Z,1004.2
2016-04-06T02:08:32.031Z,1004.17
2016-04-06T02:09:32.034Z,1004.19
2016-04-06T02:10:32.021Z,1004.19
2016-04-06T02:11:32.024Z,1004.19
2016-04-06T02:12:32.026Z,1004.19
2016-04-06T02:13:32.013Z,1004.21
2016-04-06T02:14:32.001Z,1004.23
2016-04-06T02:15:32.004Z,1004.25
2016-04-06T02:16:32.007Z,1004.23
2016-04-06T02:17:32.243Z,1004.2
2016-04-06T02:18:31.996Z,1004.19
2016-04-06T02:19:32.732Z,1004.19
2016-04-06T02:20:31.985Z,1004.21
2016-04-06T02:21:31.973Z,1004.24
2016-04-06T02:22:31.976Z,1004.22
2016-04-06T02:23:32.619Z,1004.19
2016-04-06T02:24:32.325Z,1004.19
2016-04-06T02:25:31.968Z,1004.24
2016-04-06T02:26:32.298Z,1004.19
2016-04-06T02:27:32.879Z,1004.19
2016-04-06T02:28:32.944Z,1004.22
2016-04-06T02:29:31.947Z,1004.18
2016-04-06T02:30:31.966Z,1004.22
2016-04-06T02:31:31.937Z,1004.21
2016-04-06T02:32:31.940Z,1004.19
2016-04-06T02:33:32.350Z,1004.18
2016-04-06T02:34:31.930Z,1004.19
2016-04-06T02:35:31.917Z,1004.19
2016-04-06T02:36:31.919Z,1004.2
2016-04-06T02:37:31.906Z,1004.23
2016-04-06T02:38:31.909Z,1004.22
2016-04-06T02:39:31.911Z,1004.26
2016-04-06T02:40:31.899Z,1004.2
2016-04-06T02:41:31.902Z,1004.23
2016-04-06T02:42:31.888Z,1004.26
2016-04-06T02:43:31.891Z,1004.27
2016-04-06T02:44:31.879Z,1004.25
2016-04-06T02:45:31.882Z,1004.26
2016-04-06T02:46:31.868Z,1004.31
2016-04-06T02:47:31.871Z,1004.27
2016-04-06T02:48:31.857Z,1004.28
2016-04-06T02:49:31.860Z,1004.29
2016-04-06T02:50:31.848Z,1004.29
2016-04-06T02:51:31.851Z,1004.31
2016-04-06T02:52:31.854Z,1004.32
2016-04-06T02:53:31.840Z,1004.33
2016-04-06T02:54:31.843Z,1004.34
2016-04-06T02:55:31.845Z,1004.32
2016-04-06T02:56:31.832Z,1004.34
2016-04-06T02:57:31.835Z,1004.38
2016-04-06T02:58:31.822Z,1004.39
2016-04-06T02:59:31.825Z,1004.45
2016-04-06T03:00:31.812Z,1004.4
2016-04-06T03:01:31.815Z,1004.45
2016-04-06T03:02:31.803Z,1004.45
2016-04-06T03:03:31.805Z,1004.49
2016-04-06T03:04:31.792Z,1004.42
2016-04-06T03:05:31.795Z,1004.46
2016-04-06T03:06:31.797Z,1004.41
2016-04-06T03:07:31.800Z,1004.39
2016-04-06T03:08:31.786Z,1004.42
2016-04-06T03:09:31.774Z,1004.4
2016-04-06T03:10:31.776Z,1004.41
2016-04-06T03:11:31.763Z,1004.43
2016-04-06T03:12:31.766Z,1004.47
2016-04-06T03:13:31.769Z,1004.5
2016-04-06T03:14:31.756Z,1004.53
2016-04-06T03:15:31.743Z,1004.48
2016-04-06T03:16:31.746Z,1004.54
2016-04-06T03:17:31.748Z,1004.52
2016-04-06T03:18:31.735Z,1004.53
2016-04-06T03:19:31.738Z,1004.54
2016-04-06T03:20:31.726Z,1004.48
2016-04-06T03:21:31.729Z,1004.47
2016-04-06T03:22:31.731Z,1004.45
2016-04-06T03:23:31.718Z,1004.44
2016-04-06T03:24:31.720Z,1004.45
2016-04-06T03:25:31.707Z,1004.5
2016-04-06T03:26:31.709Z,1004.48
2016-04-06T03:27:31.697Z,1004.5
2016-04-06T03:28:31.700Z,1004.47
2016-04-06T03:29:31.686Z,1004.47
2016-04-06T03:30:31.690Z,1004.45
2016-04-06T03:31:31.692Z,1004.51
2016-04-06T03:32:31.679Z,1004.49
2016-04-06T03:33:31.682Z,1004.49
2016-04-06T03:34:31.670Z,1004.5
2016-04-06T03:35:31.656Z,1004.49
2016-04-06T03:36:32.659Z,1004.49
2016-04-06T03:37:31.661Z,1004.5
2016-04-06T03:38:31.649Z,1004.52
2016-04-06T03:39:31.651Z,1004.54
2016-04-06T03:40:31.654Z,1004.53
2016-04-06T03:41:31.657Z,1004.56
2016-04-06T03:42:31.675Z,1004.6
2016-04-06T03:43:31.631Z,1004.63
2016-04-06T03:44:31.633Z,1004.65
2016-04-06T03:45:31.621Z,1004.61
2016-04-06T03:46:31.920Z,1004.62
2016-04-06T03:47:31.610Z,1004.69
2016-04-06T03:48:31.613Z,1004.67
2016-04-06T03:49:31.804Z,1004.69
2016-04-06T03:50:31.602Z,1004.71
2016-04-06T03:51:32.371Z,1004.68
2016-04-06T03:53:31.595Z,1004.68
2016-04-06T03:54:31.582Z,1004.67
2016-04-06T03:55:32.382Z,1004.72
2016-04-06T03:56:31.572Z,1004.69
2016-04-06T03:57:31.575Z,1004.67
2016-04-06T03:58:31.561Z,1004.7
2016-04-06T03:59:31.565Z,1004.76
2016-04-06T04:00:31.551Z,1004.73
2016-04-06T04:01:31.554Z,1004.7
2016-04-06T04:02:31.542Z,1004.79
2016-04-06T04:03:31.544Z,1004.81
2016-04-06T04:04:31.547Z,1004.79
2016-04-06T04:05:31.533Z,1004.8
2016-04-06T04:06:31.536Z,1004.8
2016-04-06T04:07:31.539Z,1004.79
2016-04-06T04:08:31.526Z,1004.79
2016-04-06T04:09:31.514Z,1004.78
2016-04-06T04:10:31.516Z,1004.81
2016-04-06T04:11:31.503Z,1004.8
2016-04-06T04:12:31.505Z,1004.84
2016-04-06T04:13:31.493Z,1004.81
2016-04-06T04:14:31.496Z,1004.87
2016-04-06T04:15:31.483Z,1004.88
2016-04-06T04:16:31.485Z,1004.92
2016-04-06T04:17:31.472Z,1004.88
2016-04-06T04:18:31.475Z,1004.96
2016-04-06T04:19:31.477Z,1004.98
2016-04-06T04:20:31.465Z,1004.98
2016-04-06T04:21:31.468Z,1004.96
2016-04-06T04:22:31.454Z,1004.97
2016-04-06T04:23:31.441Z,1005.02
2016-04-06T04:24:31.444Z,1005.02
2016-04-06T04:25:31.446Z,1004.99
2016-04-06T04:26:31.449Z,1004.99
2016-04-06T04:27:31.437Z,1004.99
2016-04-06T04:28:31.423Z,1005.03
2016-04-06T04:29:31.427Z,1005.02
2016-04-06T04:30:31.414Z,1005.03
2016-04-06T04:31:31.417Z,1005
2016-04-06T04:32:31.403Z,1005.01
2016-04-06T04:33:31.406Z,1005.02
2016-04-06T04:34:31.392Z,1004.99
2016-04-06T04:35:31.395Z,1004.97
2016-04-06T04:36:31.383Z,1004.99
2016-04-06T04:37:31.385Z,1004.96
2016-04-06T04:38:31.372Z,1004.97
2016-04-06T04:39:31.375Z,1005
2016-04-06T04:40:31.362Z,1005
2016-04-06T04:41:31.364Z,1005.01
2016-04-06T04:42:31.352Z,1005.04
2016-04-06T04:43:31.355Z,1005.06
2016-04-06T04:44:31.341Z,1005.06
2016-04-06T04:45:31.360Z,1005.1
2016-04-06T04:46:31.332Z,1005.07
2016-04-06T04:47:31.334Z,1005.06
2016-04-06T04:48:31.322Z,1005.07
2016-04-06T04:49:31.324Z,1005.14
2016-04-06T04:50:31.326Z,1005.14
2016-04-06T04:51:31.313Z,1005.19
2016-04-06T04:52:31.316Z,1005.15
2016-04-06T04:53:31.303Z,1005.19
2016-04-06T04:54:31.307Z,1005.2
2016-04-06T04:55:31.293Z,1005.25
2016-04-06T04:56:32.093Z,1005.26
2016-04-06T04:57:31.283Z,1005.28
2016-04-06T04:58:31.285Z,1005.21
2016-04-06T04:59:31.273Z,1005.24
2016-04-06T05:00:31.729Z,1005.26
2016-04-06T05:01:31.262Z,1005.31
2016-04-06T05:02:32.796Z,1005.34
2016-04-06T05:03:31.252Z,1005.37
2016-04-06T05:04:32.176Z,1005.38
2016-04-06T05:05:31.241Z,1005.38
2016-04-06T05:06:31.245Z,1005.37
2016-04-06T05:07:31.607Z,1005.31
2016-04-06T05:08:31.234Z,1005.27
2016-04-06T05:09:31.237Z,1005.35
2016-04-06T05:10:31.522Z,1005.35
2016-04-06T05:11:32.602Z,1005.36
2016-04-06T05:12:31.214Z,1005.37
2016-04-06T05:13:31.217Z,1005.34
2016-04-06T05:14:31.422Z,1005.35
2016-04-06T05:15:31.206Z,1005.37
2016-04-06T05:16:31.193Z,1005.39
2016-04-06T05:17:31.196Z,1005.4
2016-04-06T05:18:31.183Z,1005.38
2016-04-06T05:19:31.186Z,1005.36
2016-04-06T05:20:31.204Z,1005.36
2016-04-06T05:21:31.176Z,1005.39
2016-04-06T05:22:31.179Z,1005.38
2016-04-06T05:23:31.165Z,1005.36
2016-04-06T05:24:31.168Z,1005.39
2016-04-06T05:25:31.155Z,1005.41
2016-04-06T05:26:31.157Z,1005.39
2016-04-06T05:27:31.145Z,1005.4
2016-04-06T05:28:31.143Z,1005.36
2016-04-06T05:29:31.129Z,1005.4
2016-04-06T05:30:31.132Z,1005.35
2016-04-06T05:31:31.120Z,1005.37
2016-04-06T05:32:31.123Z,1005.35
2016-04-06T05:33:31.125Z,1005.4
2016-04-06T05:34:31.112Z,1005.39
2016-04-06T05:35:31.115Z,1005.39
2016-04-06T05:36:31.102Z,1005.47
2016-04-06T05:37:31.104Z,1005.47
2016-04-06T05:38:31.091Z,1005.49
2016-04-06T05:39:31.095Z,1005.5
2016-04-06T05:40:31.081Z,1005.51
2016-04-06T05:41:31.084Z,1005.5
2016-04-06T05:42:31.071Z,1005.52
2016-04-06T05:43:31.073Z,1005.56
2016-04-06T05:44:31.061Z,1005.56
2016-04-06T05:45:31.064Z,1005.58
2016-04-06T05:46:31.050Z,1005.61
2016-04-06T05:47:31.053Z,1005.68
2016-04-06T05:48:31.055Z,1005.76
2016-04-06T05:49:31.043Z,1005.79
2016-04-06T05:50:31.046Z,1005.79
2016-04-06T05:51:31.032Z,1005.9
2016-04-06T05:52:31.035Z,1005.91
2016-04-06T05:53:31.022Z,1005.9
2016-04-06T05:54:31.025Z,1005.96
2016-04-06T05:55:31.027Z,1005.95
2016-04-06T05:56:31.015Z,1005.93
2016-04-06T05:57:31.017Z,1006.02
2016-04-06T05:58:31.036Z,1005.98
2016-04-06T05:59:31.008Z,1005.97
2016-04-06T06:00:30.993Z,1006.01
2016-04-06T06:01:31.013Z,1006.02
2016-04-06T06:02:30.999Z,1006.03
2016-04-06T06:03:31.013Z,1006.02
2016-04-06T06:04:31.046Z,1006.01
2016-04-06T06:05:31.094Z,1006.15
2016-04-06T06:06:31.126Z,1006.12
2016-04-06T06:07:31.191Z,1006.13
2016-04-06T06:08:31.215Z,1006.17
2016-04-06T06:09:31.234Z,1006.18
2016-04-06T06:10:31.238Z,1006.18
2016-04-06T06:11:31.256Z,1006.16
2016-04-06T06:12:31.276Z,1006.26
2016-04-06T06:13:31.292Z,1006.21
2016-04-06T06:14:31.300Z,1006.22
2016-04-06T06:15:31.309Z,1006.27
2016-04-06T06:16:31.317Z,1006.26
2016-04-06T06:17:31.325Z,1006.26
2016-04-06T06:18:31.614Z,1006.33
2016-04-06T06:19:31.337Z,1006.35
2016-04-06T06:20:31.326Z,1006.34
2016-04-06T06:21:33.034Z,1006.3
2016-04-06T06:22:31.336Z,1006.3
2016-04-06T06:23:31.341Z,1006.31
2016-04-06T06:24:31.345Z,1006.25
2016-04-06T06:25:31.349Z,1006.3
2016-04-06T06:26:31.352Z,1006.29
2016-04-06T06:27:31.371Z,1006.36
2016-04-06T06:28:31.375Z,1006.32
2016-04-06T06:29:32.612Z,1006.34
2016-04-06T06:30:31.677Z,1006.42
2016-04-06T06:31:31.649Z,1006.35
2016-04-06T06:32:31.433Z,1006.4
2016-04-06T06:33:31.390Z,1006.42
2016-04-06T06:34:31.517Z,1006.37
2016-04-06T06:35:31.770Z,1006.4
2016-04-06T06:36:31.398Z,1006.47
2016-04-06T06:37:31.416Z,1006.47
2016-04-06T06:38:31.418Z,1006.53
2016-04-06T06:39:31.421Z,1006.55
2016-04-06T06:40:31.424Z,1006.56
2016-04-06T06:41:31.427Z,1006.61
2016-04-06T06:42:31.445Z,1006.61
2016-04-06T06:43:31.448Z,1006.59
2016-04-06T06:44:31.451Z,1006.58
2016-04-06T06:45:31.454Z,1006.56
2016-04-06T06:46:31.471Z,1006.64
2016-04-06T06:47:31.473Z,1006.64
2016-04-06T06:48:31.492Z,1006.66
2016-04-06T06:49:31.495Z,1006.66
2016-04-06T06:50:31.514Z,1006.66
2016-04-06T06:51:31.516Z,1006.66
2016-04-06T06:52:31.519Z,1006.76
2016-04-06T06:53:31.537Z,1006.75
2016-04-06T06:54:31.539Z,1006.81
2016-04-06T06:55:31.542Z,1006.79
2016-04-06T06:56:31.561Z,1006.88
2016-04-06T06:57:31.564Z,1006.97
2016-04-06T06:58:31.582Z,1007.07
2016-04-06T06:59:31.584Z,1007.16
2016-04-06T07:00:31.587Z,1007.26
2016-04-06T07:01:31.606Z,1007.27
2016-04-06T07:02:31.608Z,1007.31
2016-04-06T07:03:31.627Z,1007.45
2016-04-06T07:04:31.629Z,1007.45
2016-04-06T07:05:31.647Z,1007.48
2016-04-06T07:06:31.650Z,1007.46
2016-04-06T07:07:31.652Z,1007.38
2016-04-06T07:08:31.671Z,1007.52
2016-04-06T07:09:31.690Z,1007.65
2016-04-06T07:10:31.693Z,1007.88
2016-04-06T07:11:31.710Z,1007.82
2016-04-06T07:12:31.729Z,1007.91
2016-04-06T07:13:31.731Z,1007.94
2016-04-06T07:14:31.734Z,1008
2016-04-06T07:15:31.752Z,1008.06
2016-04-06T07:16:31.755Z,1008.16
2016-04-06T07:17:31.773Z,1008.18
2016-04-06T07:18:31.792Z,1008.2
2016-04-06T07:19:31.794Z,1008.25
2016-04-06T07:20:31.813Z,1008.35
2016-04-06T07:21:31.815Z,1008.19
2016-04-06T07:22:31.834Z,1007.95
2016-04-06T07:23:31.853Z,1007.92
2016-04-06T07:24:31.856Z,1007.97
2016-04-06T07:25:31.873Z,1007.96
2016-04-06T07:26:31.891Z,1007.87
2016-04-06T07:27:31.894Z,1007.87
2016-04-06T07:28:31.913Z,1007.92
2016-04-06T07:29:31.915Z,1008.1
2016-04-06T07:30:31.933Z,1008.18
2016-04-06T07:31:31.952Z,1008.09
2016-04-06T07:32:31.954Z,1007.89
2016-04-06T07:33:31.973Z,1007.9
2016-04-06T07:34:32.429Z,1007.77
2016-04-06T07:35:31.994Z,1007.14
2016-04-06T07:36:32.012Z,1007.82
2016-04-06T07:37:32.468Z,1007.53
2016-04-06T07:38:32.033Z,1007.58
2016-04-06T07:39:32.052Z,1007.78
2016-04-06T07:40:32.070Z,1008.07
2016-04-06T07:41:32.416Z,1008.16
2016-04-06T07:42:32.091Z,1008.09
2016-04-06T07:43:32.109Z,1008.06
2016-04-06T07:44:32.112Z,1008.13
2016-04-06T07:45:33.130Z,1008.02
2016-04-06T07:46:32.149Z,1008
2016-04-06T07:47:32.167Z,1007.94
2016-04-06T07:48:32.170Z,1008
2016-04-06T07:49:32.548Z,1007.96
2016-04-06T07:50:32.206Z,1007.8
2016-04-06T07:51:32.225Z,1007.61
2016-04-06T07:52:32.227Z,1007.61
2016-04-06T07:53:32.245Z,1007.47
2016-04-06T07:54:32.264Z,1007.32
2016-04-06T07:55:32.266Z,1007.27
2016-04-06T07:56:32.284Z,1007.22
2016-04-06T07:57:32.303Z,1007.21
2016-04-06T07:58:32.322Z,1007.23
2016-04-06T07:59:32.339Z,1007.15
2016-04-06T08:00:32.342Z,1007.15
2016-04-06T08:01:32.360Z,1007.17
2016-04-06T08:02:32.380Z,1007.16
2016-04-06T08:03:32.397Z,1007.16
2016-04-06T08:04:32.415Z,1007.19
2016-04-06T08:05:32.418Z,1007.18
2016-04-06T08:06:32.436Z,1007.07
2016-04-06T08:07:32.455Z,1007.07
2016-04-06T08:08:32.474Z,1007.03
2016-04-06T08:09:32.476Z,1007.06
2016-04-06T08:10:32.494Z,1007.02
2016-04-06T08:11:32.513Z,1007.03
2016-04-06T08:12:32.515Z,1007.04
2016-04-06T08:13:32.534Z,1006.93
2016-04-06T08:14:32.537Z,1006.96
2016-04-06T08:15:32.554Z,1007.06
2016-04-06T08:16:32.573Z,1007.09
2016-04-06T08:17:32.575Z,1007.1
2016-04-06T08:18:32.593Z,1006.88
2016-04-06T08:19:32.596Z,1006.72
2016-04-06T08:20:32.614Z,1006.69
2016-04-06T08:21:32.633Z,1006.65
2016-04-06T08:22:32.651Z,1006.59
2016-04-06T08:23:32.654Z,1006.58
2016-04-06T08:24:32.673Z,1006.59
2016-04-06T08:25:32.691Z,1006.65
2016-04-06T08:26:32.694Z,1006.57
2016-04-06T08:27:32.696Z,1006.55
2016-04-06T08:28:32.715Z,1006.54
2016-04-06T08:29:32.717Z,1006.56
2016-04-06T08:30:32.720Z,1006.54
2016-04-06T08:31:32.738Z,1006.65
2016-04-06T08:32:32.741Z,1006.69
2016-04-06T08:33:32.744Z,1006.57
2016-04-06T08:34:32.762Z,1006.68
2016-04-06T08:35:32.781Z,1006.77
2016-04-06T08:36:32.783Z,1006.69
2016-04-06T08:37:32.785Z,1006.72
2016-04-06T08:38:32.788Z,1006.77
2016-04-06T08:39:32.791Z,1006.68
2016-04-06T08:40:32.794Z,1006.68
2016-04-06T08:41:32.812Z,1006.67
2016-04-06T08:42:32.815Z,1006.79
2016-04-06T08:43:32.818Z,1006.81
2016-04-06T08:44:32.821Z,1006.65
2016-04-06T08:45:32.823Z,1006.65
2016-04-06T08:46:32.841Z,1006.79
2016-04-06T08:47:32.844Z,1006.82
2016-04-06T08:48:32.846Z,1006.74
2016-04-06T08:49:32.848Z,1006.6
2016-04-06T08:50:32.868Z,1006.57
2016-04-06T08:51:32.870Z,1006.57
2016-04-06T08:52:33.467Z,1006.65
2016-04-06T08:53:33.626Z,1006.62
2016-04-06T08:54:32.878Z,1006.63
2016-04-06T08:55:32.881Z,1006.59
2016-04-06T08:56:33.540Z,1006.58
2016-04-06T08:57:32.886Z,1006.6
2016-04-06T08:58:33.811Z,1006.63
2016-04-06T08:59:33.735Z,1006.58
2016-04-06T09:00:32.911Z,1006.54
2016-04-06T09:01:33.975Z,1006.52
2016-04-06T09:03:32.918Z,1006.47
2016-04-06T09:04:33.577Z,1006.44
2016-04-06T09:05:32.939Z,1006.54
2016-04-06T09:06:32.927Z,1006.5
2016-04-06T09:07:32.929Z,1006.51
2016-04-06T09:09:33.090Z,1006.59
2016-04-06T09:10:32.952Z,1006.59
2016-04-06T09:11:32.955Z,1006.62
2016-04-06T09:12:33.613Z,1006.58
2016-04-06T09:13:32.961Z,1006.52
2016-04-06T09:14:32.963Z,1006.48
2016-04-06T09:15:32.965Z,1006.44
2016-04-06T09:16:32.968Z,1006.49
2016-04-06T09:17:32.971Z,1006.58
2016-04-06T09:18:32.990Z,1006.49
2016-04-06T09:19:32.992Z,1006.53
2016-04-06T09:20:32.996Z,1006.53
2016-04-06T09:21:32.998Z,1006.62
2016-04-06T09:22:33.000Z,1006.7
2016-04-06T09:23:32.988Z,1006.7
2016-04-06T09:24:33.006Z,1006.72
2016-04-06T09:25:33.009Z,1006.73
2016-04-06T09:26:33.011Z,1006.69
2016-04-06T09:27:33.014Z,1006.68
2016-04-06T09:28:33.017Z,1006.71
2016-04-06T09:29:33.019Z,1006.74
2016-04-06T09:30:33.022Z,1006.8
2016-04-06T09:31:33.040Z,1006.79
2016-04-06T09:32:33.028Z,1006.85
2016-04-06T09:33:33.030Z,1006.86
2016-04-06T09:34:33.033Z,1006.82
2016-04-06T09:35:33.098Z,1006.79
2016-04-06T09:36:33.038Z,1006.77
2016-04-06T09:37:33.056Z,1006.74
2016-04-06T09:38:33.059Z,1006.76
2016-04-06T09:39:33.061Z,1006.74
2016-04-06T09:40:33.064Z,1006.78
2016-04-06T09:41:33.067Z,1006.84
2016-04-06T09:42:33.074Z,1006.85
2016-04-06T09:43:33.077Z,1006.84
2016-04-06T09:44:33.080Z,1006.69
2016-04-06T09:45:33.075Z,1006.82
2016-04-06T09:46:33.094Z,1006.75
2016-04-06T09:47:33.097Z,1006.66
2016-04-06T09:48:33.099Z,1006.71
2016-04-06T09:49:33.103Z,1006.73
2016-04-06T09:50:33.105Z,1006.7
2016-04-06T09:51:33.108Z,1006.67
2016-04-06T09:52:33.110Z,1006.62
2016-04-06T09:53:33.113Z,1006.65
2016-04-06T09:54:33.116Z,1006.61
2016-04-06T09:55:33.118Z,1006.69
2016-04-06T09:56:33.137Z,1006.64
2016-04-06T09:57:33.124Z,1006.65
2016-04-06T09:58:33.142Z,1006.62
2016-04-06T09:59:33.145Z,1006.68
2016-04-06T10:00:33.147Z,1006.58
2016-04-06T10:01:33.151Z,1006.53
2016-04-06T10:02:33.153Z,1006.48
2016-04-06T10:03:33.171Z,1006.41
2016-04-06T10:04:33.174Z,1006.37
2016-04-06T10:05:33.176Z,1006.34
2016-04-06T10:06:33.179Z,1006.35
2016-04-06T10:07:33.182Z,1006.38
2016-04-06T10:08:33.184Z,1006.34
2016-04-06T10:09:33.187Z,1006.35
2016-04-06T10:10:33.190Z,1006.32
2016-04-06T10:11:33.942Z,1006.3
2016-04-06T10:12:33.211Z,1006.25
2016-04-06T10:13:33.605Z,1006.28
2016-04-06T10:14:33.216Z,1006.3
2016-04-06T10:15:33.219Z,1006.26
2016-04-06T10:16:33.222Z,1006.21
2016-04-06T10:17:33.209Z,1006.29
2016-04-06T10:18:33.227Z,1006.36
2016-04-06T10:19:33.761Z,1006.45
2016-04-06T10:20:33.233Z,1006.49
2016-04-06T10:21:33.251Z,1006.58
2016-04-06T10:22:33.691Z,1006.54
2016-04-06T10:23:33.444Z,1006.48
2016-04-06T10:24:33.540Z,1006.4
2016-04-06T10:25:33.246Z,1006.27
2016-04-06T10:26:33.249Z,1006.11
2016-04-06T10:27:33.252Z,1006.05
2016-04-06T10:28:33.348Z,1005.97
2016-04-06T10:29:33.256Z,1005.92
2016-04-06T10:30:33.260Z,1005.92
2016-04-06T10:31:33.262Z,1005.96
2016-04-06T10:32:33.265Z,1005.98
2016-04-06T10:33:33.267Z,1005.95
2016-04-06T10:34:33.287Z,1005.96
2016-04-06T10:35:33.273Z,1005.95
2016-04-06T10:36:33.291Z,1005.93
2016-04-06T10:37:33.294Z,1005.89
2016-04-06T10:38:33.297Z,1005.96
2016-04-06T10:39:33.300Z,1006.03
2016-04-06T10:40:33.286Z,1006.06
2016-04-06T10:41:33.305Z,1006.05
2016-04-06T10:42:33.308Z,1006.09
2016-04-06T10:43:33.310Z,1006.11
2016-04-06T10:44:33.313Z,1006.15
2016-04-06T10:45:33.316Z,1006.13
2016-04-06T10:46:33.334Z,1006.11
2016-04-06T10:47:33.322Z,1006.18
2016-04-06T10:48:33.324Z,1006.11
2016-04-06T10:49:33.326Z,1006.1
2016-04-06T10:50:33.329Z,1006.13
2016-04-06T10:51:33.332Z,1006.09
2016-04-06T10:52:33.335Z,1005.98
2016-04-06T10:53:33.337Z,1006.06
2016-04-06T10:54:33.340Z,1006.01
2016-04-06T10:55:33.358Z,1006
2016-04-06T10:56:33.345Z,1005.8
2016-04-06T10:57:33.348Z,1005.99
2016-04-06T10:58:33.366Z,1005.97
2016-04-06T10:59:33.353Z,1005.91
2016-04-06T11:00:33.356Z,1005.96
2016-04-06T11:01:33.358Z,1005.92
2016-04-06T11:02:33.377Z,1005.98
2016-04-06T11:03:33.379Z,1005.94
2016-04-06T11:04:33.381Z,1005.89
2016-04-06T11:05:33.384Z,1005.83
2016-04-06T11:06:33.404Z,1005.8
2016-04-06T11:07:33.390Z,1005.74
2016-04-06T11:08:33.392Z,1005.67
2016-04-06T11:09:33.396Z,1005.69
2016-04-06T11:10:33.398Z,1005.69
2016-04-06T11:11:33.400Z,1005.59
2016-04-06T11:12:33.404Z,1005.7
2016-04-06T11:13:33.407Z,1005.72
2016-04-06T11:14:33.409Z,1005.73
2016-04-06T11:15:33.427Z,1005.79
2016-04-06T11:16:33.430Z,1005.73
2016-04-06T11:17:33.433Z,1005.78
2016-04-06T11:18:33.419Z,1005.82
2016-04-06T11:19:33.438Z,1005.92
2016-04-06T11:20:33.441Z,1005.88
2016-04-06T11:21:33.444Z,1005.85
2016-04-06T11:22:33.430Z,1005.93
2016-04-06T11:23:33.449Z,1005.93
2016-04-06T11:24:33.452Z,1005.92
2016-04-06T11:25:33.454Z,1005.99
2016-04-06T11:26:33.457Z,1005.89
2016-04-06T11:27:33.460Z,1005.75
2016-04-06T11:28:33.462Z,1005.75
2016-04-06T11:29:33.465Z,1005.65
2016-04-06T11:30:33.467Z,1005.61
2016-04-06T11:31:33.470Z,1005.57
2016-04-06T11:32:33.488Z,1005.8
2016-04-06T11:33:34.335Z,1005.68
2016-04-06T11:34:33.494Z,1005.68
2016-04-06T11:35:33.496Z,1005.7
2016-04-06T11:36:33.499Z,1005.74
2016-04-06T11:37:34.909Z,1005.71
2016-04-06T11:38:33.520Z,1005.82
2016-04-06T11:40:33.525Z,1006.02
2016-04-06T11:41:33.513Z,1006.13
2016-04-06T11:42:33.531Z,1006.31
2016-04-06T11:43:33.534Z,1006.43
2016-04-06T11:44:33.536Z,1006.44
2016-04-06T11:45:35.477Z,1006.36
2016-04-06T11:46:33.542Z,1006.4
2016-04-06T11:47:34.279Z,1006.31
2016-04-06T11:48:34.063Z,1006.31
2016-04-06T11:49:33.566Z,1006.35
2016-04-06T11:50:34.022Z,1006.24
2016-04-06T11:51:33.571Z,1006.42
2016-04-06T11:52:33.574Z,1006.49
2016-04-06T11:53:33.576Z,1006.51
2016-04-06T11:54:33.579Z,1006.5
2016-04-06T11:55:33.582Z,1006.47
2016-04-06T11:56:33.585Z,1006.44
2016-04-06T11:57:33.588Z,1006.29
2016-04-06T11:58:33.590Z,1006.29
2016-04-06T11:59:33.593Z,1006.28
2016-04-06T12:00:33.610Z,1006.22
2016-04-06T12:01:33.613Z,1006.32
2016-04-06T12:02:33.616Z,1006.3
2016-04-06T12:03:33.619Z,1006.28
2016-04-06T12:04:33.621Z,1006.24
2016-04-06T12:05:33.624Z,1006.17
2016-04-06T12:06:33.626Z,1006.22
2016-04-06T12:07:33.637Z,1006.19
2016-04-06T12:08:33.639Z,1006.24
2016-04-06T12:09:33.641Z,1006.2
2016-04-06T12:10:33.644Z,1006.19
2016-04-06T12:11:33.647Z,1006.21
2016-04-06T12:12:33.650Z,1006.11
2016-04-06T12:13:33.652Z,1006.03